sensor_id;sensor_type;location;lat;lon;timestamp;P1;durP1;ratioP1;P2;durP2;ratioP2
317;SDS011;146;53.448;10.228;2024-03-22T00:02:26;13.27;;;11.97;;
317;SDS011;146;53.448;10.228;2024-03-22T00:05:13;15.00;;;13.60;;
317;SDS011;146;53.448;10.228;2024-03-22T00:08:02;13.63;;;12.23;;
317;SDS011;146;53.448;10.228;2024-03-22T00:10:49;12.77;;;11.47;;
317;SDS011;146;53.448;10.228;2024-03-22T00:13:37;17.40;;;12.70;;
317;SDS011;146;53.448;10.228;2024-03-22T00:16:23;13.97;;;12.50;;
317;SDS011;146;53.448;10.228;2024-03-22T00:19:10;15.67;;;13.27;;
317;SDS011;146;53.448;10.228;2024-03-22T00:21:56;13.53;;;12.23;;
317;SDS011;146;53.448;10.228;2024-03-22T00:24:43;15.23;;;13.57;;
317;SDS011;146;53.448;10.228;2024-03-22T00:27:31;14.53;;;13.03;;
317;SDS011;146;53.448;10.228;2024-03-22T00:30:19;14.50;;;13.00;;
317;SDS011;146;53.448;10.228;2024-03-22T00:33:05;14.53;;;12.73;;
317;SDS011;146;53.448;10.228;2024-03-22T00:35:52;17.10;;;13.40;;
317;SDS011;146;53.448;10.228;2024-03-22T00:38:38;14.83;;;13.27;;
317;SDS011;146;53.448;10.228;2024-03-22T00:41:25;14.47;;;13.03;;
317;SDS011;146;53.448;10.228;2024-03-22T00:44:13;14.73;;;12.83;;
317;SDS011;146;53.448;10.228;2024-03-22T00:47:00;15.30;;;13.60;;
317;SDS011;146;53.448;10.228;2024-03-22T00:49:48;16.63;;;15.03;;
317;SDS011;146;53.448;10.228;2024-03-22T00:52:35;14.83;;;13.40;;
317;SDS011;146;53.448;10.228;2024-03-22T00:55:22;14.90;;;13.40;;
317;SDS011;146;53.448;10.228;2024-03-22T00:58:09;16.33;;;14.67;;
317;SDS011;146;53.448;10.228;2024-03-22T01:00:57;16.67;;;15.07;;
317;SDS011;146;53.448;10.228;2024-03-22T01:03:43;15.23;;;13.73;;
317;SDS011;146;53.448;10.228;2024-03-22T01:06:31;15.83;;;14.23;;
317;SDS011;146;53.448;10.228;2024-03-22T01:09:17;15.80;;;14.30;;
317;SDS011;146;53.448;10.228;2024-03-22T01:12:06;16.73;;;15.13;;
317;SDS011;146;53.448;10.228;2024-03-22T01:14:52;14.13;;;12.73;;
317;SDS011;146;53.448;10.228;2024-03-22T01:17:41;15.77;;;14.27;;
317;SDS011;146;53.448;10.228;2024-03-22T01:20:28;16.37;;;14.70;;
317;SDS011;146;53.448;10.228;2024-03-22T01:23:15;15.97;;;13.93;;
317;SDS011;146;53.448;10.228;2024-03-22T01:26:02;17.20;;;15.60;;
317;SDS011;146;53.448;10.228;2024-03-22T01:28:50;18.03;;;15.47;;
317;SDS011;146;53.448;10.228;2024-03-22T01:31:38;17.53;;;15.83;;
317;SDS011;146;53.448;10.228;2024-03-22T01:34:25;19.20;;;16.37;;
317;SDS011;146;53.448;10.228;2024-03-22T01:37:12;18.10;;;16.27;;
317;SDS011;146;53.448;10.228;2024-03-22T01:39:59;17.50;;;15.70;;
317;SDS011;146;53.448;10.228;2024-03-22T01:42:46;18.37;;;16.10;;
317;SDS011;146;53.448;10.228;2024-03-22T01:45:33;18.80;;;17.10;;
317;SDS011;146;53.448;10.228;2024-03-22T01:48:20;18.27;;;16.53;;
317;SDS011;146;53.448;10.228;2024-03-22T01:51:09;18.10;;;16.27;;
317;SDS011;146;53.448;10.228;2024-03-22T01:53:55;18.77;;;16.97;;
317;SDS011;146;53.448;10.228;2024-03-22T01:56:48;19.20;;;17.23;;
317;SDS011;146;53.448;10.228;2024-03-22T01:59:34;20.53;;;18.53;;
317;SDS011;146;53.448;10.228;2024-03-22T02:02:22;20.47;;;18.57;;
317;SDS011;146;53.448;10.228;2024-03-22T02:05:11;19.80;;;17.80;;
317;SDS011;146;53.448;10.228;2024-03-22T02:08:00;20.33;;;18.20;;
317;SDS011;146;53.448;10.228;2024-03-22T02:10:47;20.77;;;18.67;;
317;SDS011;146;53.448;10.228;2024-03-22T02:13:34;21.90;;;19.90;;
317;SDS011;146;53.448;10.228;2024-03-22T02:16:20;23.40;;;20.97;;
317;SDS011;146;53.448;10.228;2024-03-22T02:19:07;21.30;;;19.30;;
317;SDS011;146;53.448;10.228;2024-03-22T02:21:54;23.33;;;20.97;;
317;SDS011;146;53.448;10.228;2024-03-22T02:24:42;23.33;;;20.93;;
317;SDS011;146;53.448;10.228;2024-03-22T02:27:29;21.70;;;19.60;;
317;SDS011;146;53.448;10.228;2024-03-22T02:30:16;24.50;;;22.03;;
317;SDS011;146;53.448;10.228;2024-03-22T02:33:03;23.07;;;20.83;;
317;SDS011;146;53.448;10.228;2024-03-22T02:35:50;22.93;;;20.83;;
317;SDS011;146;53.448;10.228;2024-03-22T02:38:37;24.10;;;21.70;;
317;SDS011;146;53.448;10.228;2024-03-22T02:41:24;22.43;;;20.27;;
317;SDS011;146;53.448;10.228;2024-03-22T02:44:12;23.80;;;21.40;;
317;SDS011;146;53.448;10.228;2024-03-22T02:47:00;25.00;;;21.03;;
317;SDS011;146;53.448;10.228;2024-03-22T02:49:47;24.03;;;21.67;;
317;SDS011;146;53.448;10.228;2024-03-22T02:52:33;25.43;;;22.77;;
317;SDS011;146;53.448;10.228;2024-03-22T02:55:20;25.60;;;22.93;;
317;SDS011;146;53.448;10.228;2024-03-22T02:58:08;25.93;;;23.43;;
317;SDS011;146;53.448;10.228;2024-03-22T03:00:55;26.03;;;23.43;;
317;SDS011;146;53.448;10.228;2024-03-22T03:03:41;27.03;;;24.33;;
317;SDS011;146;53.448;10.228;2024-03-22T03:06:29;26.33;;;23.60;;
317;SDS011;146;53.448;10.228;2024-03-22T03:09:16;25.43;;;22.60;;
317;SDS011;146;53.448;10.228;2024-03-22T03:12:03;27.37;;;24.60;;
317;SDS011;146;53.448;10.228;2024-03-22T03:14:51;28.50;;;25.50;;
317;SDS011;146;53.448;10.228;2024-03-22T03:17:38;26.20;;;23.50;;
317;SDS011;146;53.448;10.228;2024-03-22T03:20:24;27.73;;;24.80;;
317;SDS011;146;53.448;10.228;2024-03-22T03:23:12;25.93;;;23.40;;
317;SDS011;146;53.448;10.228;2024-03-22T03:25:59;28.57;;;25.57;;
317;SDS011;146;53.448;10.228;2024-03-22T03:28:45;28.07;;;25.27;;
317;SDS011;146;53.448;10.228;2024-03-22T03:31:34;28.53;;;25.53;;
317;SDS011;146;53.448;10.228;2024-03-22T03:34:20;28.30;;;25.10;;
317;SDS011;146;53.448;10.228;2024-03-22T03:37:07;27.77;;;24.87;;
317;SDS011;146;53.448;10.228;2024-03-22T03:39:53;27.97;;;25.00;;
317;SDS011;146;53.448;10.228;2024-03-22T03:42:40;28.40;;;25.40;;
317;SDS011;146;53.448;10.228;2024-03-22T03:45:27;27.37;;;24.63;;
317;SDS011;146;53.448;10.228;2024-03-22T03:48:17;30.73;;;27.60;;
317;SDS011;146;53.448;10.228;2024-03-22T03:51:03;28.00;;;25.20;;
317;SDS011;146;53.448;10.228;2024-03-22T03:53:52;27.33;;;23.53;;
317;SDS011;146;53.448;10.228;2024-03-22T03:56:38;30.00;;;26.83;;
317;SDS011;146;53.448;10.228;2024-03-22T03:59:25;28.43;;;25.40;;
317;SDS011;146;53.448;10.228;2024-03-22T04:02:12;29.33;;;26.33;;
317;SDS011;146;53.448;10.228;2024-03-22T04:05:00;28.70;;;25.70;;
317;SDS011;146;53.448;10.228;2024-03-22T04:07:47;29.63;;;26.73;;
317;SDS011;146;53.448;10.228;2024-03-22T04:10:33;30.57;;;27.50;;
317;SDS011;146;53.448;10.228;2024-03-22T04:13:21;33.63;;;29.57;;
317;SDS011;146;53.448;10.228;2024-03-22T04:16:07;31.07;;;27.17;;
317;SDS011;146;53.448;10.228;2024-03-22T04:18:54;30.20;;;27.20;;
317;SDS011;146;53.448;10.228;2024-03-22T04:21:41;29.23;;;26.33;;
317;SDS011;146;53.448;10.228;2024-03-22T04:24:29;28.10;;;25.20;;
317;SDS011;146;53.448;10.228;2024-03-22T04:27:16;30.13;;;26.90;;
317;SDS011;146;53.448;10.228;2024-03-22T04:30:02;30.20;;;26.80;;
317;SDS011;146;53.448;10.228;2024-03-22T04:32:50;31.43;;;28.33;;
317;SDS011;146;53.448;10.228;2024-03-22T04:35:36;31.20;;;27.90;;
317;SDS011;146;53.448;10.228;2024-03-22T04:38:25;32.23;;;28.93;;
317;SDS011;146;53.448;10.228;2024-03-22T04:41:12;30.23;;;27.10;;
317;SDS011;146;53.448;10.228;2024-03-22T04:43:59;30.20;;;27.10;;
317;SDS011;146;53.448;10.228;2024-03-22T04:46:46;31.20;;;28.00;;
317;SDS011;146;53.448;10.228;2024-03-22T04:49:33;37.23;;;29.53;;
317;SDS011;146;53.448;10.228;2024-03-22T04:52:20;33.80;;;30.03;;
317;SDS011;146;53.448;10.228;2024-03-22T04:55:08;33.17;;;29.70;;
317;SDS011;146;53.448;10.228;2024-03-22T04:57:55;32.17;;;28.97;;
317;SDS011;146;53.448;10.228;2024-03-22T05:00:42;32.80;;;29.33;;
317;SDS011;146;53.448;10.228;2024-03-22T05:03:28;32.50;;;29.20;;
317;SDS011;146;53.448;10.228;2024-03-22T05:06:16;35.60;;;31.70;;
317;SDS011;146;53.448;10.228;2024-03-22T05:09:02;34.97;;;30.17;;
317;SDS011;146;53.448;10.228;2024-03-22T05:11:51;33.20;;;29.70;;
317;SDS011;146;53.448;10.228;2024-03-22T05:14:39;31.80;;;28.37;;
317;SDS011;146;53.448;10.228;2024-03-22T05:17:25;34.40;;;30.83;;
317;SDS011;146;53.448;10.228;2024-03-22T05:20:12;34.67;;;31.10;;
317;SDS011;146;53.448;10.228;2024-03-22T05:23:00;33.57;;;29.97;;
317;SDS011;146;53.448;10.228;2024-03-22T05:25:46;31.87;;;28.37;;
317;SDS011;146;53.448;10.228;2024-03-22T05:28:35;35.30;;;30.20;;
317;SDS011;146;53.448;10.228;2024-03-22T05:31:21;34.23;;;30.67;;
317;SDS011;146;53.448;10.228;2024-03-22T05:34:08;37.80;;;33.07;;
317;SDS011;146;53.448;10.228;2024-03-22T05:36:54;34.93;;;31.30;;
317;SDS011;146;53.448;10.228;2024-03-22T05:39:42;35.37;;;31.40;;
317;SDS011;146;53.448;10.228;2024-03-22T05:42:28;35.23;;;31.00;;
317;SDS011;146;53.448;10.228;2024-03-22T05:45:16;36.07;;;32.27;;
317;SDS011;146;53.448;10.228;2024-03-22T05:48:03;39.03;;;33.10;;
317;SDS011;146;53.448;10.228;2024-03-22T05:50:51;36.60;;;32.07;;
317;SDS011;146;53.448;10.228;2024-03-22T05:53:37;35.77;;;31.63;;
317;SDS011;146;53.448;10.228;2024-03-22T05:56:25;36.57;;;32.60;;
317;SDS011;146;53.448;10.228;2024-03-22T05:59:11;37.80;;;33.70;;
317;SDS011;146;53.448;10.228;2024-03-22T06:01:59;36.20;;;32.10;;
317;SDS011;146;53.448;10.228;2024-03-22T06:04:46;37.73;;;33.37;;
317;SDS011;146;53.448;10.228;2024-03-22T06:07:34;42.10;;;34.87;;
317;SDS011;146;53.448;10.228;2024-03-22T06:10:26;42.50;;;32.07;;
317;SDS011;146;53.448;10.228;2024-03-22T06:13:13;37.63;;;33.20;;
317;SDS011;146;53.448;10.228;2024-03-22T06:15:59;38.93;;;34.73;;
317;SDS011;146;53.448;10.228;2024-03-22T06:18:50;37.70;;;33.60;;
317;SDS011;146;53.448;10.228;2024-03-22T06:21:37;37.20;;;33.17;;
317;SDS011;146;53.448;10.228;2024-03-22T06:24:24;40.60;;;35.27;;
317;SDS011;146;53.448;10.228;2024-03-22T06:27:10;43.43;;;36.30;;
317;SDS011;146;53.448;10.228;2024-03-22T06:29:59;38.80;;;34.80;;
317;SDS011;146;53.448;10.228;2024-03-22T06:32:45;42.00;;;35.60;;
317;SDS011;146;53.448;10.228;2024-03-22T06:35:33;39.37;;;33.60;;
317;SDS011;146;53.448;10.228;2024-03-22T06:38:19;37.70;;;32.73;;
317;SDS011;146;53.448;10.228;2024-03-22T06:41:07;39.17;;;34.60;;
317;SDS011;146;53.448;10.228;2024-03-22T06:43:53;39.30;;;34.70;;
317;SDS011;146;53.448;10.228;2024-03-22T06:46:40;40.83;;;35.17;;
317;SDS011;146;53.448;10.228;2024-03-22T06:49:26;40.33;;;36.03;;
317;SDS011;146;53.448;10.228;2024-03-22T06:52:15;41.23;;;36.20;;
317;SDS011;146;53.448;10.228;2024-03-22T06:55:01;42.67;;;36.60;;
317;SDS011;146;53.448;10.228;2024-03-22T06:57:49;42.67;;;36.33;;
317;SDS011;146;53.448;10.228;2024-03-22T07:00:36;42.17;;;37.57;;
317;SDS011;146;53.448;10.228;2024-03-22T07:03:24;40.80;;;35.77;;
317;SDS011;146;53.448;10.228;2024-03-22T07:06:10;42.00;;;36.87;;
317;SDS011;146;53.448;10.228;2024-03-22T07:08:58;43.60;;;37.40;;
317;SDS011;146;53.448;10.228;2024-03-22T07:11:44;41.97;;;36.17;;
317;SDS011;146;53.448;10.228;2024-03-22T07:14:32;44.53;;;38.83;;
317;SDS011;146;53.448;10.228;2024-03-22T07:17:18;45.77;;;40.70;;
317;SDS011;146;53.448;10.228;2024-03-22T07:20:09;44.40;;;35.67;;
317;SDS011;146;53.448;10.228;2024-03-22T07:22:56;42.03;;;37.60;;
317;SDS011;146;53.448;10.228;2024-03-22T07:25:47;45.33;;;39.90;;
317;SDS011;146;53.448;10.228;2024-03-22T07:28:33;42.37;;;37.67;;
317;SDS011;146;53.448;10.228;2024-03-22T07:31:21;45.80;;;39.57;;
317;SDS011;146;53.448;10.228;2024-03-22T07:34:07;47.40;;;39.80;;
317;SDS011;146;53.448;10.228;2024-03-22T07:36:54;44.03;;;39.33;;
317;SDS011;146;53.448;10.228;2024-03-22T07:39:40;44.60;;;39.80;;
317;SDS011;146;53.448;10.228;2024-03-22T07:42:29;50.17;;;39.67;;
317;SDS011;146;53.448;10.228;2024-03-22T07:45:16;48.03;;;39.67;;
317;SDS011;146;53.448;10.228;2024-03-22T07:48:03;45.97;;;40.33;;
317;SDS011;146;53.448;10.228;2024-03-22T07:50:55;44.33;;;39.63;;
317;SDS011;146;53.448;10.228;2024-03-22T07:53:42;46.10;;;40.37;;
317;SDS011;146;53.448;10.228;2024-03-22T07:56:29;46.77;;;38.80;;
317;SDS011;146;53.448;10.228;2024-03-22T07:59:17;46.90;;;37.93;;
317;SDS011;146;53.448;10.228;2024-03-22T08:02:03;45.30;;;38.90;;
317;SDS011;146;53.448;10.228;2024-03-22T08:04:50;43.50;;;37.80;;
317;SDS011;146;53.448;10.228;2024-03-22T08:07:37;47.77;;;40.93;;
317;SDS011;146;53.448;10.228;2024-03-22T08:10:24;49.50;;;41.20;;
317;SDS011;146;53.448;10.228;2024-03-22T08:13:10;51.73;;;42.47;;
317;SDS011;146;53.448;10.228;2024-03-22T08:15:59;50.00;;;42.70;;
317;SDS011;146;53.448;10.228;2024-03-22T08:18:45;48.97;;;42.20;;
317;SDS011;146;53.448;10.228;2024-03-22T08:21:32;48.43;;;40.80;;
317;SDS011;146;53.448;10.228;2024-03-22T08:24:18;51.07;;;43.33;;
317;SDS011;146;53.448;10.228;2024-03-22T08:27:05;48.00;;;41.33;;
317;SDS011;146;53.448;10.228;2024-03-22T08:29:51;47.43;;;41.60;;
317;SDS011;146;53.448;10.228;2024-03-22T08:32:40;50.17;;;41.77;;
317;SDS011;146;53.448;10.228;2024-03-22T08:35:27;55.90;;;45.47;;
317;SDS011;146;53.448;10.228;2024-03-22T08:38:14;47.50;;;40.03;;
317;SDS011;146;53.448;10.228;2024-03-22T08:41:02;52.80;;;44.57;;
317;SDS011;146;53.448;10.228;2024-03-22T08:43:49;49.33;;;41.00;;
317;SDS011;146;53.448;10.228;2024-03-22T08:46:35;52.17;;;42.80;;
317;SDS011;146;53.448;10.228;2024-03-22T08:49:24;51.13;;;42.60;;
317;SDS011;146;53.448;10.228;2024-03-22T08:52:10;49.50;;;42.07;;
317;SDS011;146;53.448;10.228;2024-03-22T08:54:57;47.00;;;39.97;;
317;SDS011;146;53.448;10.228;2024-03-22T08:57:44;50.97;;;42.57;;
317;SDS011;146;53.448;10.228;2024-03-22T09:00:30;52.83;;;42.80;;
317;SDS011;146;53.448;10.228;2024-03-22T09:03:18;52.33;;;41.33;;
317;SDS011;146;53.448;10.228;2024-03-22T09:06:05;50.57;;;40.73;;
317;SDS011;146;53.448;10.228;2024-03-22T09:08:53;49.03;;;41.50;;
317;SDS011;146;53.448;10.228;2024-03-22T09:11:43;55.00;;;40.63;;
317;SDS011;146;53.448;10.228;2024-03-22T09:14:30;55.00;;;41.40;;
317;SDS011;146;53.448;10.228;2024-03-22T09:17:16;58.00;;;44.70;;
317;SDS011;146;53.448;10.228;2024-03-22T09:20:03;47.80;;;41.20;;
317;SDS011;146;53.448;10.228;2024-03-22T09:22:52;53.67;;;43.03;;
317;SDS011;146;53.448;10.228;2024-03-22T09:25:39;51.73;;;41.80;;
317;SDS011;146;53.448;10.228;2024-03-22T09:28:25;56.43;;;43.90;;
317;SDS011;146;53.448;10.228;2024-03-22T09:31:12;50.63;;;40.77;;
317;SDS011;146;53.448;10.228;2024-03-22T09:33:58;50.87;;;41.03;;
317;SDS011;146;53.448;10.228;2024-03-22T09:36:46;51.10;;;42.37;;
317;SDS011;146;53.448;10.228;2024-03-22T09:39:34;46.20;;;39.13;;
317;SDS011;146;53.448;10.228;2024-03-22T09:42:21;47.83;;;38.70;;
317;SDS011;146;53.448;10.228;2024-03-22T09:45:10;50.43;;;41.40;;
317;SDS011;146;53.448;10.228;2024-03-22T09:47:57;46.10;;;39.63;;
317;SDS011;146;53.448;10.228;2024-03-22T09:50:46;45.67;;;36.87;;
317;SDS011;146;53.448;10.228;2024-03-22T09:53:32;47.60;;;37.10;;
317;SDS011;146;53.448;10.228;2024-03-22T09:56:22;42.57;;;34.97;;
317;SDS011;146;53.448;10.228;2024-03-22T09:59:10;42.07;;;34.73;;
317;SDS011;146;53.448;10.228;2024-03-22T10:01:58;54.23;;;42.03;;
317;SDS011;146;53.448;10.228;2024-03-22T10:04:45;46.63;;;37.67;;
317;SDS011;146;53.448;10.228;2024-03-22T10:07:34;51.73;;;39.13;;
317;SDS011;146;53.448;10.228;2024-03-22T10:10:21;48.00;;;38.73;;
317;SDS011;146;53.448;10.228;2024-03-22T10:13:10;46.93;;;38.17;;
317;SDS011;146;53.448;10.228;2024-03-22T10:15:57;51.60;;;41.87;;
317;SDS011;146;53.448;10.228;2024-03-22T10:18:44;50.77;;;40.73;;
317;SDS011;146;53.448;10.228;2024-03-22T10:21:30;47.03;;;38.50;;
317;SDS011;146;53.448;10.228;2024-03-22T10:24:20;53.53;;;42.50;;
317;SDS011;146;53.448;10.228;2024-03-22T10:27:06;53.53;;;41.47;;
317;SDS011;146;53.448;10.228;2024-03-22T10:29:56;52.53;;;41.47;;
317;SDS011;146;53.448;10.228;2024-03-22T10:32:43;53.60;;;43.80;;
317;SDS011;146;53.448;10.228;2024-03-22T10:35:30;49.37;;;39.10;;
317;SDS011;146;53.448;10.228;2024-03-22T10:38:18;50.37;;;39.37;;
317;SDS011;146;53.448;10.228;2024-03-22T10:41:05;46.67;;;38.40;;
317;SDS011;146;53.448;10.228;2024-03-22T10:43:52;47.77;;;38.80;;
317;SDS011;146;53.448;10.228;2024-03-22T10:46:41;54.37;;;41.20;;
317;SDS011;146;53.448;10.228;2024-03-22T10:49:31;51.13;;;39.00;;
317;SDS011;146;53.448;10.228;2024-03-22T10:52:23;48.73;;;41.27;;
317;SDS011;146;53.448;10.228;2024-03-22T10:55:12;47.90;;;40.53;;
317;SDS011;146;53.448;10.228;2024-03-22T10:58:03;51.10;;;38.13;;
317;SDS011;146;53.448;10.228;2024-03-22T11:00:51;51.27;;;41.00;;
317;SDS011;146;53.448;10.228;2024-03-22T11:03:39;52.40;;;40.77;;
317;SDS011;146;53.448;10.228;2024-03-22T11:06:27;55.07;;;40.83;;
317;SDS011;146;53.448;10.228;2024-03-22T11:09:18;55.20;;;42.13;;
317;SDS011;146;53.448;10.228;2024-03-22T11:12:08;54.70;;;42.70;;
317;SDS011;146;53.448;10.228;2024-03-22T11:14:55;49.33;;;37.97;;
317;SDS011;146;53.448;10.228;2024-03-22T11:17:42;47.90;;;37.87;;
317;SDS011;146;53.448;10.228;2024-03-22T11:20:30;48.80;;;37.47;;
317;SDS011;146;53.448;10.228;2024-03-22T11:23:17;38.40;;;32.50;;
317;SDS011;146;53.448;10.228;2024-03-22T11:26:04;37.37;;;29.60;;
317;SDS011;146;53.448;10.228;2024-03-22T11:28:53;32.67;;;26.57;;
317;SDS011;146;53.448;10.228;2024-03-22T11:31:39;29.20;;;24.87;;
317;SDS011;146;53.448;10.228;2024-03-22T11:34:26;25.13;;;21.57;;
317;SDS011;146;53.448;10.228;2024-03-22T11:37:14;23.20;;;20.77;;
317;SDS011;146;53.448;10.228;2024-03-22T11:40:01;22.47;;;20.07;;
317;SDS011;146;53.448;10.228;2024-03-22T11:42:51;22.40;;;20.20;;
317;SDS011;146;53.448;10.228;2024-03-22T11:45:39;20.90;;;18.03;;
317;SDS011;146;53.448;10.228;2024-03-22T11:48:26;21.20;;;19.07;;
317;SDS011;146;53.448;10.228;2024-03-22T11:51:13;19.73;;;17.70;;
317;SDS011;146;53.448;10.228;2024-03-22T11:54:01;21.13;;;19.03;;
317;SDS011;146;53.448;10.228;2024-03-22T11:56:49;21.43;;;19.13;;
317;SDS011;146;53.448;10.228;2024-03-22T11:59:35;18.83;;;16.90;;
317;SDS011;146;53.448;10.228;2024-03-22T12:02:23;19.87;;;17.77;;
317;SDS011;146;53.448;10.228;2024-03-22T12:05:09;21.30;;;19.07;;
317;SDS011;146;53.448;10.228;2024-03-22T12:07:56;20.27;;;18.10;;
317;SDS011;146;53.448;10.228;2024-03-22T12:10:44;21.03;;;17.67;;
317;SDS011;146;53.448;10.228;2024-03-22T12:13:31;17.30;;;15.40;;
317;SDS011;146;53.448;10.228;2024-03-22T12:16:17;18.60;;;16.73;;
317;SDS011;146;53.448;10.228;2024-03-22T12:19:08;16.63;;;14.80;;
317;SDS011;146;53.448;10.228;2024-03-22T12:21:54;18.73;;;16.73;;
317;SDS011;146;53.448;10.228;2024-03-22T12:24:41;16.57;;;14.87;;
317;SDS011;146;53.448;10.228;2024-03-22T12:27:29;15.93;;;14.30;;
317;SDS011;146;53.448;10.228;2024-03-22T12:30:16;14.93;;;13.40;;
317;SDS011;146;53.448;10.228;2024-03-22T12:33:03;15.60;;;12.80;;
317;SDS011;146;53.448;10.228;2024-03-22T12:35:53;13.30;;;12.10;;
317;SDS011;146;53.448;10.228;2024-03-22T12:38:40;17.07;;;15.33;;
317;SDS011;146;53.448;10.228;2024-03-22T12:41:27;13.90;;;12.57;;
317;SDS011;146;53.448;10.228;2024-03-22T12:44:15;14.70;;;13.40;;
317;SDS011;146;53.448;10.228;2024-03-22T12:47:03;14.27;;;12.93;;
317;SDS011;146;53.448;10.228;2024-03-22T12:49:52;16.57;;;14.60;;
317;SDS011;146;53.448;10.228;2024-03-22T12:52:39;13.90;;;12.60;;
317;SDS011;146;53.448;10.228;2024-03-22T12:55:25;13.40;;;11.90;;
317;SDS011;146;53.448;10.228;2024-03-22T12:58:13;13.60;;;12.27;;
317;SDS011;146;53.448;10.228;2024-03-22T13:01:01;12.20;;;11.00;;
317;SDS011;146;53.448;10.228;2024-03-22T13:03:48;12.60;;;11.40;;
317;SDS011;146;53.448;10.228;2024-03-22T13:06:35;12.57;;;11.30;;
317;SDS011;146;53.448;10.228;2024-03-22T13:09:22;12.57;;;11.37;;
317;SDS011;146;53.448;10.228;2024-03-22T13:12:08;12.17;;;10.93;;
317;SDS011;146;53.448;10.228;2024-03-22T13:14:55;13.50;;;12.10;;
317;SDS011;146;53.448;10.228;2024-03-22T13:17:43;12.47;;;11.37;;
317;SDS011;146;53.448;10.228;2024-03-22T13:20:30;13.20;;;11.90;;
317;SDS011;146;53.448;10.228;2024-03-22T13:23:16;13.03;;;11.80;;
317;SDS011;146;53.448;10.228;2024-03-22T13:26:04;12.83;;;11.53;;
317;SDS011;146;53.448;10.228;2024-03-22T13:28:50;13.27;;;12.07;;
317;SDS011;146;53.448;10.228;2024-03-22T13:31:37;12.03;;;10.73;;
317;SDS011;146;53.448;10.228;2024-03-22T13:34:25;11.30;;;10.20;;
317;SDS011;146;53.448;10.228;2024-03-22T13:37:16;11.47;;;10.37;;
317;SDS011;146;53.448;10.228;2024-03-22T13:40:03;11.53;;;10.43;;
317;SDS011;146;53.448;10.228;2024-03-22T13:42:52;11.47;;;10.27;;
317;SDS011;146;53.448;10.228;2024-03-22T13:45:40;10.50;;;9.50;;
317;SDS011;146;53.448;10.228;2024-03-22T13:48:28;12.00;;;10.80;;
317;SDS011;146;53.448;10.228;2024-03-22T13:51:16;10.73;;;9.67;;
317;SDS011;146;53.448;10.228;2024-03-22T13:54:02;8.20;;;7.50;;
317;SDS011;146;53.448;10.228;2024-03-22T13:56:50;8.97;;;8.17;;
317;SDS011;146;53.448;10.228;2024-03-22T13:59:36;9.90;;;8.93;;
317;SDS011;146;53.448;10.228;2024-03-22T14:02:25;9.43;;;8.53;;
317;SDS011;146;53.448;10.228;2024-03-22T14:05:11;9.07;;;8.27;;
317;SDS011;146;53.448;10.228;2024-03-22T14:08:00;9.97;;;9.03;;
317;SDS011;146;53.448;10.228;2024-03-22T14:10:46;10.00;;;9.00;;
317;SDS011;146;53.448;10.228;2024-03-22T14:13:33;9.33;;;8.33;;
317;SDS011;146;53.448;10.228;2024-03-22T14:16:19;9.90;;;8.90;;
317;SDS011;146;53.448;10.228;2024-03-22T14:19:07;11.50;;;9.37;;
317;SDS011;146;53.448;10.228;2024-03-22T14:21:54;10.17;;;8.80;;
317;SDS011;146;53.448;10.228;2024-03-22T14:24:42;12.33;;;11.03;;
317;SDS011;146;53.448;10.228;2024-03-22T14:27:29;11.97;;;10.67;;
317;SDS011;146;53.448;10.228;2024-03-22T14:30:16;10.80;;;9.80;;
317;SDS011;146;53.448;10.228;2024-03-22T14:33:03;9.63;;;8.83;;
317;SDS011;146;53.448;10.228;2024-03-22T14:35:50;7.77;;;7.17;;
317;SDS011;146;53.448;10.228;2024-03-22T14:38:37;6.97;;;6.40;;
317;SDS011;146;53.448;10.228;2024-03-22T14:41:25;5.17;;;4.70;;
317;SDS011;146;53.448;10.228;2024-03-22T14:44:11;4.60;;;4.27;;
317;SDS011;146;53.448;10.228;2024-03-22T14:46:59;3.90;;;3.60;;
317;SDS011;146;53.448;10.228;2024-03-22T14:49:45;3.73;;;3.50;;
317;SDS011;146;53.448;10.228;2024-03-22T14:52:32;3.70;;;3.50;;
317;SDS011;146;53.448;10.228;2024-03-22T14:55:19;3.67;;;3.37;;
317;SDS011;146;53.448;10.228;2024-03-22T14:58:07;5.87;;;5.47;;
317;SDS011;146;53.448;10.228;2024-03-22T15:00:55;6.73;;;5.90;;
317;SDS011;146;53.448;10.228;2024-03-22T15:03:42;8.40;;;7.60;;
317;SDS011;146;53.448;10.228;2024-03-22T15:06:32;7.27;;;6.57;;
317;SDS011;146;53.448;10.228;2024-03-22T15:09:18;6.50;;;4.73;;
317;SDS011;146;53.448;10.228;2024-03-22T15:12:06;7.03;;;5.73;;
317;SDS011;146;53.448;10.228;2024-03-22T15:14:56;6.93;;;5.30;;
317;SDS011;146;53.448;10.228;2024-03-22T15:17:42;11.80;;;5.57;;
317;SDS011;146;53.448;10.228;2024-03-22T15:20:30;7.20;;;5.40;;
317;SDS011;146;53.448;10.228;2024-03-22T15:23:16;8.40;;;5.10;;
317;SDS011;146;53.448;10.228;2024-03-22T15:26:05;9.87;;;5.30;;
317;SDS011;146;53.448;10.228;2024-03-22T15:28:51;11.23;;;5.43;;
317;SDS011;146;53.448;10.228;2024-03-22T15:31:40;8.40;;;4.33;;
317;SDS011;146;53.448;10.228;2024-03-22T15:34:26;8.40;;;4.73;;
317;SDS011;146;53.448;10.228;2024-03-22T15:37:13;8.67;;;4.50;;
317;SDS011;146;53.448;10.228;2024-03-22T15:40:00;13.37;;;4.73;;
317;SDS011;146;53.448;10.228;2024-03-22T15:42:47;10.13;;;4.93;;
317;SDS011;146;53.448;10.228;2024-03-22T15:45:33;8.60;;;4.57;;
317;SDS011;146;53.448;10.228;2024-03-22T15:48:23;9.67;;;4.87;;
317;SDS011;146;53.448;10.228;2024-03-22T15:51:10;11.13;;;4.77;;
317;SDS011;146;53.448;10.228;2024-03-22T15:53:56;15.07;;;5.00;;
317;SDS011;146;53.448;10.228;2024-03-22T15:56:44;7.93;;;4.57;;
317;SDS011;146;53.448;10.228;2024-03-22T15:59:30;9.70;;;3.93;;
317;SDS011;146;53.448;10.228;2024-03-22T16:02:18;8.63;;;3.87;;
317;SDS011;146;53.448;10.228;2024-03-22T16:05:08;11.80;;;4.50;;
317;SDS011;146;53.448;10.228;2024-03-22T16:07:55;9.23;;;3.90;;
317;SDS011;146;53.448;10.228;2024-03-22T16:10:42;7.30;;;4.40;;
317;SDS011;146;53.448;10.228;2024-03-22T16:13:29;8.83;;;3.97;;
317;SDS011;146;53.448;10.228;2024-03-22T16:16:16;8.83;;;3.63;;
317;SDS011;146;53.448;10.228;2024-03-22T16:19:03;7.63;;;3.33;;
317;SDS011;146;53.448;10.228;2024-03-22T16:21:52;9.23;;;3.70;;
317;SDS011;146;53.448;10.228;2024-03-22T16:24:39;14.80;;;4.83;;
317;SDS011;146;53.448;10.228;2024-03-22T16:27:26;9.93;;;3.60;;
317;SDS011;146;53.448;10.228;2024-03-22T16:30:12;9.20;;;3.50;;
317;SDS011;146;53.448;10.228;2024-03-22T16:32:59;15.03;;;5.30;;
317;SDS011;146;53.448;10.228;2024-03-22T16:35:45;14.03;;;4.10;;
317;SDS011;146;53.448;10.228;2024-03-22T16:38:34;16.13;;;4.73;;
317;SDS011;146;53.448;10.228;2024-03-22T16:41:20;12.93;;;4.40;;
317;SDS011;146;53.448;10.228;2024-03-22T16:44:07;8.30;;;3.63;;
317;SDS011;146;53.448;10.228;2024-03-22T16:46:54;10.67;;;3.80;;
317;SDS011;146;53.448;10.228;2024-03-22T16:49:41;8.83;;;3.90;;
317;SDS011;146;53.448;10.228;2024-03-22T16:52:27;8.50;;;4.03;;
317;SDS011;146;53.448;10.228;2024-03-22T16:55:21;12.63;;;5.33;;
317;SDS011;146;53.448;10.228;2024-03-22T16:58:09;11.60;;;4.30;;
317;SDS011;146;53.448;10.228;2024-03-22T17:01:01;13.47;;;5.07;;
317;SDS011;146;53.448;10.228;2024-03-22T17:03:48;13.27;;;3.93;;
317;SDS011;146;53.448;10.228;2024-03-22T17:06:35;10.67;;;4.40;;
317;SDS011;146;53.448;10.228;2024-03-22T17:09:21;14.30;;;4.80;;